Terminal Aerodrome Forecast
Issued by NWS Pendleton, OR

Current Version | Previous Version | Text Only | Print | Product List | Glossary On
Versions: 1 2 3 4 5 6 7 8 9 10 11 12 13 14 15 16 17 18 19 20 21 22 23 24 25 26 27 28
000
FTUS46 KPDT 012100 AAB
TAFPDT
TAF AMD
KPDT 012137Z 0122/0218 30006KT 3SM -RA SCT005 OVC040
      TEMPO 0122/0124 5SM -RA BKN005
     FM020000 25006KT 5SM -RA BR BKN030 OVC040
     FM020600 22007KT P6SM SCT020 BKN040
     FM021200 15005KT P6SM SCT025 BKN200=

USA.gov is the U.S. government's official web portal to all federal, state and local government web resources and services.